Station: Inverell Rs  

  Atmospheric Gas Attenuation - ITU Rec 676-11   ----------------- dB/100km -----------------
Date Time Temp RH % AH g/m3 Dew Point Wind Direction Speed kph Gust kph Barometer mB Rainfall Since 9am 24GHz 47GHz 76GHz 122GHz 134GHz 241GHz
08/05 12:30 15.4 36 4.73 0.4 15 26 1020.3 0 11.3 20.0 25.2 65.2 50.2 169.6
08/05 12:20 15.4 36 4.73 0.4 15 19 1020.4 0 11.3 20.0 25.2 65.2 50.3 169.7
08/05 12:10 14.7 38 4.78 0.5 11 13 1020.6 0 11.5 20.2 25.6 66.3 51.3 173.1
08/05 12:00 14.4 39 4.82 0.6 13 26 1020.7 0 11.5 20.3 25.8 66.9 51.9 175.4
08/05 11:50 14.3 38 4.67 0.2 11 13 1020.8 0 11.2 20.1 25.3 65.6 50.3 169.6
08/05 11:40 13.7 38 4.5 -0.3 13 17 1020.8 0 10.9 20.0 24.9 64.5 48.7 164.1
08/05 11:30 13.5 40 4.68 0.2 15 30 1020.9 0 11.3 20.3 25.6 66.4 50.9 171.7
08/05 11:20 13 40 4.54 -0.3 13 15 1021 0 11.0 20.2 25.3 65.5 49.6 167.1
08/05 11:10 12.7 41 4.56 -0.2 13 17 1021.1 0 11.1 20.3 25.4 65.9 50.0 168.5
08/05 11:00 12.6 42 4.65 0 13 24 1021.4 0 11.2 20.5 25.8 66.9 51.1 172.4
08/05 10:50 12 42 4.48 -0.5 11 15 1021.5 0 10.9 20.4 25.4 65.8 49.6 166.8
08/05 10:40 11.9 42 4.45 -0.6 13 20 1021.7 0 10.8 20.4 25.3 65.6 49.3 165.8
08/05 10:30 11.6 43 4.47 -0.5 11 19 1021.7 0 10.9 20.5 25.5 66.0 49.7 167.2
08/05 10:20 11.5 43 4.44 -0.6 11 13 1021.9 0 10.8 20.5 25.4 65.8 49.4 166.2
08/05 10:10 11.1 44 4.43 -0.7 11 15 1021.9 0 10.8 20.5 25.5 66.1 49.6 166.7
08/05 10:00 10.7 44 4.32 -1 13 22 1021.8 0 10.6 20.5 25.2 65.3 48.5 162.9
08/05 09:50 10.2 46 4.38 -0.9 19 26 1021.9 0 10.7 20.7 25.6 66.3 49.5 166.4
08/05 09:40 9.6 48 4.4 -0.9 15 17 1022 0 10.8 20.8 25.9 67.0 50.1 168.5
08/05 09:30 9.4 48 4.34 -1 17 28 1022 0 10.7 20.8 25.7 66.6 49.6 166.4
08/05 09:20 9.1 50 4.44 -0.8 19 22 1022.1 0 10.9 21.0 26.2 67.8 50.9 171.3
08/05 09:10 8.6 51 4.38 -0.9 17 20 1022.1 0 10.8 21.0 26.1 67.7 50.5 169.8
08/05 09:00 8.4 53 4.5 -0.6 13 24 1022.2 0 11.1 21.3 26.6 69.0 52.1 175.3
08/05 08:50 8.1 52 4.33 -1.1 15 17 1022.2 0 10.7 21.1 26.1 67.6 50.3 168.7
08/05 08:40 7.9 54 4.44 -0.8 15 22 1022.1 0 10.9 21.3 26.6 68.8 51.7 173.8
08/05 08:30 7.2 55 4.32 -1.2 15 26 1022.1 0 10.7 21.3 26.3 68.3 50.7 170.2
08/05 08:20 6.8 58 4.44 -0.9 15 20 1022.1 0 11.0 21.5 26.9 69.8 52.4 176.2
08/05 08:10 6.5 59 4.43 -0.9 11 13 1022.1 0 11.0 21.6 27.0 70.0 52.5 176.4
08/05 08:00 5.9 60 4.33 -1.3 11 19 1022 0 10.8 21.6 26.8 69.5 51.7 173.3
08/05 07:50 5.8 62 4.44 -0.9 9 11 1022 0 11.0 21.8 27.2 70.7 53.1 178.4
08/05 07:40 5 62 4.22 -1.7 7 9 1022 0 10.6 21.6 26.7 69.1 50.9 170.5
08/05 07:30 4.8 63 4.23 -1.6 9 13 1021.9 0 10.6 21.7 26.8 69.4 51.1 171.3
08/05 07:20 4.9 63 4.26 -1.5 11 11 1021.8 0 10.7 21.7 26.9 69.6 51.4 172.4
08/05 07:10 4.4 65 4.25 -1.6 11 13 1021.7 0 10.6 21.8 27.0 70.0 51.6 173.0
08/05 07:00 3.9 67 4.24 -1.7 7 13 1021.8 0 10.6 21.9 27.1 70.3 51.8 173.7
08/05 06:50 3.3 69 4.19 -1.8 7 9 1021.7 0 10.6 22.0 27.1 70.3 51.6 172.7
08/05 06:40 2.4 71 4.06 -2.3 7 9 1021.6 0 10.3 22.0 26.9 69.8 50.5 168.8
08/05 06:30 2.3 72 4.09 -2.2 7 11 1021.6 0 10.4 22.1 27.1 70.2 50.9 170.3
08/05 06:20 2.2 71 4 -2.5 6 6 1021.5 0 10.2 21.9 26.7 69.3 49.8 166.5
08/05 06:10 2.4 72 4.12 -2.1 6 9 1021.5 0 10.4 22.1 27.1 70.4 51.3 171.5
08/05 06:00 2.1 72 4.03 -2.4 7 11 1021.4 0 10.2 22.0 26.9 69.7 50.3 168.0
08/05 05:50 2.3 71 4.03 -2.4 7 9 1021.5 0 10.2 22.0 26.8 69.5 50.2 167.6
08/05 05:40 2.5 70 4.03 -2.4 2 4 1021.4 0 10.2 21.9 26.8 69.3 50.0 167.2
08/05 05:30 2.9 70 4.14 -2 6 9 1021.4 0 10.5 22.0 27.0 70.1 51.2 171.3
08/05 05:20 2.8 69 4.05 -2.3 9 11 1021.3 0 10.3 21.9 26.7 69.3 50.1 167.4
08/05 05:10 3.2 68 4.1 -2.1 9 13 1021.1 0 10.4 21.8 26.8 69.4 50.5 168.8
08/05 05:00 3.1 69 4.13 -2 9 13 1021.1 0 10.4 21.9 26.9 69.8 50.9 170.4
08/05 04:50 3.1 68 4.07 -2.2 11 15 1021 0 10.3 21.8 26.7 69.2 50.1 167.7
08/05 04:40 3.2 69 4.16 -1.9 9 11 1021 0 10.5 21.9 27.0 70.0 51.2 171.5
08/05 04:30 3.1 69 4.13 -2 7 11 1020.9 0 10.4 21.9 26.9 69.8 50.9 170.3
08/05 04:20 3 70 4.17 -1.9 7 9 1020.8 0 10.5 22.0 27.1 70.3 51.5 172.3
08/05 04:10 3.1 69 4.13 -2 6 7 1020.8 0 10.4 21.9 26.9 69.8 50.9 170.3
08/05 04:00 3.2 67 4.04 -2.3 9 15 1020.8 0 10.2 21.7 26.5 68.8 49.7 166.1
08/05 03:50 3.6 65 4.03 -2.3 9 13 1020.8 0 10.2 21.6 26.4 68.3 49.3 164.8
08/05 03:40 4.2 64 4.13 -2 7 9 1020.7 0 10.4 21.6 26.5 68.8 50.2 168.0
08/05 03:30 4.4 63 4.12 -2 11 17 1020.7 0 10.4 21.6 26.4 68.5 49.9 167.1
08/05 03:20 4.7 61 4.07 -2.2 11 15 1020.7 0 10.3 21.4 26.2 67.8 49.1 164.3
08/05 03:10 4.9 61 4.12 -2 13 17 1020.5 0 10.4 21.4 26.3 68.1 49.6 166.0
08/05 03:00 4.9 61 4.12 -2 11 15 1020.5 0 10.4 21.4 26.3 68.1 49.6 166.0
08/05 02:50 4.8 60 4.03 -2.3 13 15 1020.5 0 10.2 21.3 26.0 67.3 48.6 162.3
08/05 02:40 4.8 60 4.03 -2.3 11 13 1020.5 0 10.2 21.3 26.0 67.3 48.6 162.3
08/05 02:30 4.7 59 3.93 -2.6 9 19 1020.5 0 10.0 21.2 25.6 66.4 47.4 158.1
08/05 02:20 4.9 58 3.92 -2.7 11 15 1020.5 0 9.9 21.1 25.5 66.1 47.1 157.3
08/05 02:10 4.7 58 3.87 -2.8 7 9 1020.5 0 9.8 21.1 25.4 65.8 46.6 155.5
08/05 02:00 4.9 57 3.85 -2.9 9 13 1020.6 0 9.8 21.0 25.3 65.4 46.3 154.3
08/05 01:50 5.1 57 3.9 -2.7 9 11 1020.6 0 9.9 21.1 25.4 65.7 46.8 156.1
08/05 01:40 5.1 56 3.83 -2.9 9 11 1020.6 0 9.7 21.0 25.1 65.0 45.9 153.0
08/05 01:30 5.2 55 3.79 -3.1 11 19 1020.7 0 9.6 20.9 25.0 64.6 45.4 151.2
08/05 01:20 5.4 54 3.77 -3.1 9 13 1020.6 0 9.6 20.8 24.8 64.2 45.0 149.9
08/05 01:10 5.6 54 3.82 -3 13 15 1020.7 0 9.7 20.8 24.9 64.5 45.5 151.7
08/05 01:00 5.5 53 3.72 -3.3 9 11 1020.8 0 9.5 20.7 24.6 63.7 44.4 147.6
08/05 00:50 5.8 52 3.73 -3.3 7 11 1020.8 0 9.5 20.7 24.6 63.5 44.3 147.5
08/05 00:40 5.9 52 3.75 -3.2 13 17 1020.7 0 9.5 20.7 24.6 63.6 44.5 148.1
08/05 00:20 5.9 52 3.75 -3.2 13 15 1020.9 0 9.5 20.7 24.6 63.6 44.5 148.2
08/05 00:10 5.8 51 3.66 -3.5 6 9 1021 0 9.3 20.6 24.3 62.8 43.5 144.5
08/05 00:00 6.1 50 3.66 -3.5 9 13 1020.9 0 9.3 20.5 24.2 62.6 43.3 144.0
07/05 23:50 6.5 48 3.6 -3.7 7 9 1021 0 9.2 20.3 23.9 61.7 42.4 140.8
07/05 23:40 6.6 48 3.63 -3.6 15 20 1020.8 0 9.3 20.3 24.0 61.9 42.7 141.8
07/05 23:30 6.5 48 3.6 -3.7 11 24 1020.8 0 9.2 20.3 23.9 61.7 42.4 140.7
07/05 23:20 6.9 47 3.62 -3.6 15 19 1020.9 0 9.2 20.3 23.8 61.6 42.4 140.9
07/05 23:10 6.4 48 3.58 -3.8 15 20 1020.6 0 9.2 20.3 23.8 61.6 42.2 140.1
07/05 23:00 6.2 48 3.53 -4 9 17 1020.8 0 9.1 20.3 23.7 61.3 41.7 138.3
07/05 22:50 6.8 46 3.52 -4 9 17 1020.5 0 9.0 20.1 23.5 60.7 41.2 136.9
07/05 22:40 6.7 45 3.42 -4.4 9 15 1020.6 0 8.8 20.0 23.2 59.8 40.1 132.9
07/05 22:30 7 44 3.41 -4.4 13 24 1020.5 0 8.8 19.9 23.1 59.5 39.9 132.0
07/05 22:20 7.5 43 3.44 -4.2 9 11 1020.4 0 8.8 19.9 23.0 59.4 39.9 132.4
07/05 22:10 7.4 42 3.34 -4.7 11 13 1020.7 0 8.6 19.7 22.7 58.6 38.8 128.5
07/05 22:00 7.3 42 3.32 -4.7 9 15 1020.6 0 8.6 19.7 22.7 58.4 38.7 127.8
07/05 21:50 7.6 41 3.3 -4.8 9 13 1020.8 0 8.5 19.6 22.5 58.0 38.3 126.5
07/05 21:40 7.4 42 3.34 -4.7 6 7 1020.8 0 8.6 19.7 22.7 58.6 38.8 128.5
07/05 21:30 7.5 42 3.36 -4.6 6 9 1021 0 8.7 19.8 22.8 58.7 39.0 129.2
07/05 21:20 8.1 40 3.33 -4.7 7 9 1020.7 0 8.6 19.6 22.5 58.0 38.4 127.0
07/05 21:10 8.3 40 3.37 -4.5 7 9 1020.7 0 8.7 19.6 22.6 58.2 38.8 128.3
07/05 21:00 8.7 40 3.46 -4.1 11 19 1020.8 0 8.8 19.6 22.8 58.7 39.6 131.3
07/05 20:50 8.7 39 3.37 -4.5 13 17 1020.5 0 8.7 19.5 22.4 57.9 38.6 127.6
07/05 20:40 8.9 39 3.42 -4.3 9 13 1020.5 0 8.8 19.5 22.6 58.2 39.0 129.3
07/05 20:30 8.7 40 3.46 -4.1 11 15 1020.5 0 8.8 19.6 22.8 58.7 39.6 131.3
07/05 20:20 9.1 39 3.46 -4.1 13 17 1020.5 0 8.8 19.5 22.6 58.4 39.4 130.6
07/05 20:10 9.2 38 3.39 -4.4 9 13 1020.2 0 8.7 19.4 22.4 57.7 38.5 127.6
07/05 20:00 9.3 37 3.33 -4.6 9 19 1020.1 0 8.5 19.3 22.1 57.1 37.8 125.1
07/05 19:50 9.8 38 3.53 -3.8 11 15 1020.1 0 9.0 19.5 22.7 58.5 39.8 132.3

Last Refresh: 08-May-2026 12:07:30

Bureau of Meteorology